Bauline, Canada
Current Conditions -  °F | °C
As of 3:00 PM on Saturday 20 Dec 2014 (Local Time) from CYYT Reporting Station
Broken Clouds Broken Clouds  
Wind Chill: 20°   Ceiling: 1800
Heat Index: 32°   Visibility: 15mi
Dew Point: 27°   Wind: 20mph
Humidity: 80%   Direction: 40°NE
Pressure: 30.08"   Gusts: 29mph
Location:  47.72°N, 52.83°W
Report Text: CYYT 201800Z 04017G25KT 15SM BKN018 00/M03 A3008 RMK SC5 SLP194
Loading
Personal Weather Stations






























Interactive Weather Map New forecast layout! Learn more

10-Day Weather Forecast

Advertisements
Track Severe Weather on mobile